Time;durP1;ratioP1;P1;durP2;ratioP2;P2;SDS_P1;SDS_P2;PMS_P1;PMS_P2;Temp;Humidity;BMP_temperature;BMP_pressure;BME280_temperature;BME280_humidity;BME280_pressure;Samples;Min_cycle;Max_cycle;Signal;HPM_P1;HPM_P2
2020/12/04 00:00:20;;;;;;;34.73;20.72;;;;;;;-0.92;78.96;98060.73;1749975;82;20933;-80
2020/12/04 00:02:48;;;;;;;36.13;21.73;;;;;;;-0.91;79.00;98069.53;1817095;79;21437;-80
2020/12/04 00:05:16;;;;;;;33.08;22.37;;;;;;;-0.91;78.96;98057.20;1780821;80;21804;-80
2020/12/04 00:07:43;;;;;;;33.42;21.70;;;;;;;-0.91;78.94;98064.27;1749901;82;21040;-80
2020/12/04 00:10:11;;;;;;;34.03;22.17;;;;;;;-0.92;78.96;98050.66;1816886;79;20917;-80
2020/12/04 00:12:40;;;;;;;35.88;22.65;;;;;;;-0.91;79.04;98057.67;1749984;82;20941;-80
2020/12/04 00:15:09;;;;;;;34.90;22.60;;;;;;;-0.94;79.10;98050.70;1816863;79;20988;-79
2020/12/04 00:17:36;;;;;;;34.08;22.65;;;;;;;-0.93;79.17;98055.51;1816715;79;21361;-79
2020/12/04 00:20:04;;;;;;;32.67;22.20;;;;;;;-0.93;79.21;98050.23;1816924;79;21469;-79
2020/12/04 00:22:33;;;;;;;33.08;21.35;;;;;;;-0.93;79.28;98052.88;1816846;79;20928;-78
2020/12/04 00:25:00;;;;;;;35.83;22.90;;;;;;;-0.93;79.24;98044.97;1749904;82;20921;-79
2020/12/04 00:27:27;;;;;;;31.85;21.87;;;;;;;-0.93;79.35;98056.83;1816955;79;21015;-79
2020/12/04 00:29:56;;;;;;;33.92;23.05;;;;;;;-0.95;79.27;98042.84;1749988;82;21440;-80
2020/12/04 00:32:24;;;;;;;37.88;23.27;;;;;;;-0.95;79.36;98049.42;1816835;79;20981;-79
2020/12/04 00:34:52;;;;;;;34.53;22.75;;;;;;;-0.94;79.30;98047.20;1749896;82;20936;-80
2020/12/04 00:37:20;;;;;;;33.45;21.73;;;;;;;-0.91;79.33;98048.44;1816857;79;20905;-80
2020/12/04 00:39:48;;;;;;;33.60;23.55;;;;;;;-0.92;79.38;98059.88;1750048;82;20988;-80
2020/12/04 00:42:15;;;;;;;34.92;22.32;;;;;;;-0.91;79.39;98064.27;1816921;79;22674;-80
2020/12/04 00:44:45;;;;;;;34.10;22.58;;;;;;;-0.92;79.40;98062.52;1749972;82;21441;-80
2020/12/04 00:47:12;;;;;;;37.13;22.82;;;;;;;-0.91;79.42;98062.95;1816902;79;21342;-79
2020/12/04 00:49:39;;;;;;;31.40;21.45;;;;;;;-0.91;79.42;98058.98;1816961;79;21055;-80
2020/12/04 00:52:07;;;;;;;33.40;22.48;;;;;;;-0.89;79.43;98055.84;1780888;80;20988;-80
2020/12/04 00:54:35;;;;;;;32.95;22.73;;;;;;;-0.88;79.35;98053.62;1749910;82;21656;-80
2020/12/04 00:57:08;;;;;;;30.92;22.55;;;;;;;-0.89;79.39;98051.89;1816777;79;20909;-79
2020/12/04 00:59:55;;;;;;;33.10;23.18;;;;;;;-0.86;79.34;98041.25;1842365;78;27961;-79
2020/12/04 01:02:27;;;;;;;33.55;21.87;;;;;;;-0.87;79.32;98034.24;1817714;79;20904;-79
2020/12/04 01:04:55;;;;;;;33.38;22.07;;;;;;;-0.87;79.36;98032.07;1817697;78;21192;-79
2020/12/04 01:07:22;;;;;;;36.08;22.67;;;;;;;-0.88;79.35;98028.58;1817623;79;20975;-79
2020/12/04 01:09:50;;;;;;;35.60;21.95;;;;;;;-0.86;79.32;98028.07;1817638;79;21007;-79
2020/12/04 01:12:19;;;;;;;31.62;22.00;;;;;;;-0.86;79.31;98014.03;1817639;79;20876;-79
2020/12/04 01:14:47;;;;;;;33.75;22.90;;;;;;;-0.88;79.34;98016.72;1817691;79;20901;-79
2020/12/04 01:17:15;;;;;;;37.88;23.45;;;;;;;-0.88;79.27;98015.39;1817644;79;21794;-80
2020/12/04 01:19:44;;;;;;;35.33;21.65;;;;;;;-0.88;79.31;98016.72;1817569;79;20983;-79
2020/12/04 01:22:14;;;;;;;34.65;22.87;;;;;;;-0.89;79.36;98016.30;1817486;79;20947;-79
2020/12/04 01:24:42;;;;;;;40.33;22.80;;;;;;;-0.91;79.37;98014.16;1817591;79;20964;-79
2020/12/04 01:27:10;;;;;;;34.95;22.90;;;;;;;-0.91;79.41;98011.53;1817555;79;20967;-80
2020/12/04 01:29:38;;;;;;;30.43;21.17;;;;;;;-0.89;79.39;98007.06;1817713;79;22711;-79
2020/12/04 01:32:06;;;;;;;33.58;22.60;;;;;;;-0.89;79.41;98006.21;1817481;79;20924;-80
2020/12/04 01:34:33;;;;;;;37.60;23.83;;;;;;;-0.91;79.50;97993.07;1817679;79;21398;-79
2020/12/04 01:37:02;;;;;;;35.40;22.22;;;;;;;-0.94;79.57;97995.80;1817571;79;21410;-79
2020/12/04 01:39:29;;;;;;;33.95;22.70;;;;;;;-0.94;79.54;98002.39;1817553;79;20916;-81
2020/12/04 01:41:57;;;;;;;32.75;22.98;;;;;;;-0.92;79.50;98005.38;1817491;79;21802;-79
2020/12/04 01:44:25;;;;;;;39.42;23.50;;;;;;;-0.93;79.46;97998.83;1817668;79;20880;-80
2020/12/04 01:46:55;;;;;;;36.48;23.32;;;;;;;-0.89;79.48;98011.48;1817529;79;20908;-80
2020/12/04 01:49:22;;;;;;;36.05;24.30;;;;;;;-0.91;79.44;98000.98;1817522;79;21421;-79
2020/12/04 01:51:50;;;;;;;39.20;26.20;;;;;;;-0.91;79.57;98008.43;1817480;79;20979;-79
2020/12/04 01:54:18;;;;;;;37.03;23.27;;;;;;;-0.93;79.61;98006.30;1817643;78;21356;-78
2020/12/04 01:56:47;;;;;;;37.58;24.10;;;;;;;-0.88;79.59;98000.89;1817601;79;20912;-78
2020/12/04 01:59:15;;;;;;;40.95;24.32;;;;;;;-0.86;79.57;98003.48;1810427;78;20909;-78
2020/12/04 02:01:44;;;;;;;35.75;23.70;;;;;;;-0.85;79.64;98002.13;1806334;79;20952;-80
2020/12/04 02:04:13;;;;;;;36.42;23.10;;;;;;;-0.86;79.60;97991.16;1806598;79;21386;-78
2020/12/04 02:06:51;;;;;;;35.52;23.85;;;;;;;-0.87;79.60;97986.78;1727588;79;22305;-80
2020/12/04 02:09:28;;;;;;;37.50;23.42;;;;;;;-0.86;79.53;97991.16;1806265;79;21012;-80
2020/12/04 02:11:55;;;;;;;36.48;22.87;;;;;;;-0.87;79.40;97985.93;1805805;79;20865;-78
2020/12/04 02:14:23;;;;;;;36.80;23.45;;;;;;;-0.88;79.32;97965.30;1805870;79;20992;-78
2020/12/04 02:17:03;;;;;;;33.50;23.57;;;;;;;-0.87;79.23;97969.64;1805923;79;21430;-79
2020/12/04 02:19:37;;;;;;;37.17;24.85;;;;;;;-0.87;79.22;97968.79;1805904;79;21360;-79
2020/12/04 02:22:04;;;;;;;30.70;21.17;;;;;;;-0.89;79.17;97963.56;1805780;79;21339;-79
2020/12/04 02:24:36;;;;;;;30.82;21.65;;;;;;;-0.87;79.16;97960.88;1805854;79;20928;-77
2020/12/04 02:27:03;;;;;;;32.08;20.92;;;;;;;-0.88;79.26;97963.98;1805803;79;20956;-78
2020/12/04 02:29:31;;;;;;;33.60;21.70;;;;;;;-0.92;79.31;97970.24;1805875;79;20975;-80
2020/12/04 02:31:58;;;;;;;36.08;22.10;;;;;;;-0.93;79.11;97963.23;1805870;79;21766;-78
2020/12/04 02:34:26;;;;;;;37.03;22.58;;;;;;;-0.93;79.22;97966.75;1805941;79;20932;-78
2020/12/04 02:36:55;;;;;;;32.83;21.90;;;;;;;-0.94;79.23;97969.44;1805817;79;21405;-77
2020/12/04 02:39:24;;;;;;;34.98;22.22;;;;;;;-0.98;79.23;97973.95;1805588;79;20967;-79
2020/12/04 02:41:52;;;;;;;32.70;21.90;;;;;;;-0.95;79.16;97965.06;1781529;79;20948;-79
2020/12/04 02:44:19;;;;;;;37.30;22.32;;;;;;;-0.95;79.15;97970.33;1806047;79;21679;-78
2020/12/04 02:46:47;;;;;;;33.25;22.40;;;;;;;-0.96;79.10;97969.48;1805730;79;22278;-79
2020/12/04 02:49:20;;;;;;;33.40;21.55;;;;;;;-0.95;79.08;97971.66;1805914;79;21319;-79
2020/12/04 02:51:45;;;;;;;30.17;21.45;;;;;;;-0.95;79.11;97966.37;1805693;79;21457;-78
2020/12/04 02:54:13;;;;;;;39.13;24.37;;;;;;;-0.95;79.05;97970.33;1805938;79;20913;-79
2020/12/04 02:56:41;;;;;;;31.25;22.10;;;;;;;-0.96;79.06;97968.16;1805775;79;21768;-79
2020/12/04 02:59:11;;;;;;;35.05;23.77;;;;;;;-0.98;79.12;97966.47;1810126;79;21571;-79
2020/12/04 03:01:39;;;;;;;33.50;23.02;;;;;;;-0.96;79.09;97964.67;1815004;79;21722;-79
2020/12/04 03:04:07;;;;;;;36.77;24.12;;;;;;;-0.96;78.95;97969.48;1814898;79;20869;-80
2020/12/04 03:06:34;;;;;;;36.13;22.52;;;;;;;-0.96;78.89;97964.20;1815117;79;20951;-80
2020/12/04 03:09:03;;;;;;;32.73;21.73;;;;;;;-0.95;78.86;97961.11;1814986;79;21358;-79
2020/12/04 03:11:31;;;;;;;37.05;23.27;;;;;;;-0.93;78.92;97950.05;1783557;79;20992;-79
2020/12/04 03:13:59;;;;;;;33.67;21.45;;;;;;;-0.96;78.95;97943.58;1814928;79;20912;-79
2020/12/04 03:16:27;;;;;;;36.70;23.55;;;;;;;-0.96;78.75;97946.22;1814962;79;20912;-80
2020/12/04 03:18:54;;;;;;;33.10;23.62;;;;;;;-0.96;78.67;97942.27;1814987;79;21433;-79
2020/12/04 03:21:22;;;;;;;31.95;21.50;;;;;;;-0.99;78.76;97931.81;1814865;79;22636;-79
2020/12/04 03:23:50;;;;;;;36.30;22.07;;;;;;;-0.99;78.80;97947.16;1815008;79;21031;-80
2020/12/04 03:26:17;;;;;;;33.75;21.70;;;;;;;-1.00;78.79;97937.98;1814936;79;20902;-79
2020/12/04 03:28:45;;;;;;;31.95;20.85;;;;;;;-1.02;78.73;97935.39;1814993;79;20956;-79
2020/12/04 03:31:14;;;;;;;34.67;22.75;;;;;;;-1.04;78.72;97931.06;1814842;79;20920;-79
2020/12/04 03:33:42;;;;;;;32.78;22.67;;;;;;;-1.06;78.75;97936.37;1815042;79;22655;-79
2020/12/04 03:36:09;;;;;;;30.17;20.90;;;;;;;-1.08;78.81;97937.36;1814860;79;20951;-80
2020/12/04 03:38:37;;;;;;;32.58;22.37;;;;;;;-1.08;78.75;97941.31;1814802;79;21469;-79
2020/12/04 03:41:05;;;;;;;32.05;21.77;;;;;;;-1.12;78.78;97941.40;1814925;79;20987;-78
2020/12/04 03:43:33;;;;;;;33.08;22.13;;;;;;;-1.12;78.86;97941.83;1814988;79;20920;-78
2020/12/04 03:46:01;;;;;;;32.55;21.07;;;;;;;-1.14;78.92;97944.52;1814906;79;21806;-79
2020/12/04 03:48:28;;;;;;;37.10;23.42;;;;;;;-1.17;78.91;97945.06;1814779;79;20916;-78
2020/12/04 03:50:56;;;;;;;33.23;22.25;;;;;;;-1.18;78.92;97942.89;1814833;79;20884;-79
2020/12/04 03:53:24;;;;;;;33.35;21.10;;;;;;;-1.20;78.98;97931.98;1814850;79;20967;-78
2020/12/04 03:55:53;;;;;;;34.08;21.85;;;;;;;-1.23;79.01;97935.59;1814901;79;20924;-79
2020/12/04 03:58:20;;;;;;;35.40;23.07;;;;;;;-1.21;79.03;97931.59;1814956;79;21406;-80
2020/12/04 04:00:49;;;;;;;33.13;22.07;;;;;;;-1.22;79.15;97941.71;1814190;79;20892;-78
2020/12/04 04:03:17;;;;;;;36.40;22.25;;;;;;;-1.25;79.24;97945.28;1814274;78;20908;-78
2020/12/04 04:05:44;;;;;;;35.15;22.60;;;;;;;-1.26;79.28;97946.22;1814215;79;21009;-78
2020/12/04 04:08:11;;;;;;;35.85;23.05;;;;;;;-1.26;79.30;97942.27;1814330;79;20999;-79
2020/12/04 04:10:39;;;;;;;32.78;22.87;;;;;;;-1.27;79.35;97941.84;1814291;79;21421;-79
2020/12/04 04:13:06;;;;;;;37.78;22.95;;;;;;;-1.30;79.34;97939.30;1814123;79;20984;-79
2020/12/04 04:15:35;;;;;;;32.90;21.42;;;;;;;-1.30;79.36;97939.30;1814297;79;20920;-79
2020/12/04 04:18:04;;;;;;;36.30;21.40;;;;;;;-1.31;79.34;97933.61;1814215;78;20986;-78
2020/12/04 04:20:32;;;;;;;38.48;23.05;;;;;;;-1.32;79.29;97935.85;1814351;79;21378;-79
2020/12/04 04:22:59;;;;;;;39.88;25.10;;;;;;;-1.34;79.32;97927.11;1814200;79;21146;-78
2020/12/04 04:25:27;;;;;;;36.10;22.58;;;;;;;-1.35;79.34;97929.35;1814322;79;20881;-78
2020/12/04 04:27:55;;;;;;;36.35;23.92;;;;;;;-1.36;79.31;97944.73;1814392;79;21275;-80
2020/12/04 04:30:23;;;;;;;35.10;23.20;;;;;;;-1.38;79.27;97939.98;1814186;79;20979;-80
2020/12/04 04:32:50;;;;;;;37.95;21.97;;;;;;;-1.40;79.35;97931.23;1814388;79;21061;-79
2020/12/04 04:35:18;;;;;;;36.80;23.35;;;;;;;-1.41;79.35;97940.06;1814304;78;21193;-78
2020/12/04 04:37:46;;;;;;;34.23;22.32;;;;;;;-1.43;79.40;97934.84;1814259;79;20885;-78
2020/12/04 04:40:13;;;;;;;33.78;22.77;;;;;;;-1.44;79.39;97934.87;1814342;79;20964;-80
2020/12/04 04:42:41;;;;;;;35.48;23.32;;;;;;;-1.46;79.39;97925.70;1814247;79;21015;-78
2020/12/04 04:45:08;;;;;;;34.08;22.17;;;;;;;-1.48;79.44;97934.97;1814286;79;20884;-78
2020/12/04 04:47:36;;;;;;;29.77;20.17;;;;;;;-1.48;79.55;97936.28;1814255;79;21347;-78
2020/12/04 04:50:03;;;;;;;31.60;21.10;;;;;;;-1.50;79.59;97936.79;1814328;79;20976;-77
2020/12/04 04:52:32;;;;;;;33.10;21.50;;;;;;;-1.48;79.65;97934.11;1814305;79;20967;-78
2020/12/04 04:55:00;;;;;;;31.37;21.15;;;;;;;-1.49;79.69;97924.02;1780799;79;21366;-79
2020/12/04 04:57:27;;;;;;;34.55;21.30;;;;;;;-1.48;79.75;97923.58;1814247;79;21465;-79
2020/12/04 04:59:55;;;;;;;32.65;21.02;;;;;;;-1.48;79.74;97924.43;1821456;78;22235;-79
2020/12/04 05:02:23;;;;;;;33.20;20.30;;;;;;;-1.45;79.72;97927.44;1828712;78;21030;-80
2020/12/04 05:04:56;;;;;;;30.55;20.32;;;;;;;-1.46;79.77;97933.14;1828646;78;21010;-80
2020/12/04 05:07:29;;;;;;;31.70;18.82;;;;;;;-1.44;79.78;97916.44;1828918;78;21456;-80
2020/12/04 05:10:17;;;;;;;33.63;21.30;;;;;;;-1.42;79.74;97914.62;1828966;78;21311;-80
2020/12/04 05:13:01;;;;;;;28.12;19.95;;;;;;;-1.45;79.72;97912.95;1828724;78;21128;-81
2020/12/04 05:15:29;;;;;;;35.68;21.77;;;;;;;-1.46;79.82;97917.80;1828718;78;21001;-78
2020/12/04 05:18:10;;;;;;;32.25;20.43;;;;;;;-1.43;79.79;97928.69;1828627;78;20943;-79
2020/12/04 05:20:52;;;;;;;32.83;20.80;;;;;;;-1.41;79.76;97916.36;1828631;78;20880;-78
2020/12/04 05:23:21;;;;;;;28.55;20.43;;;;;;;-1.43;79.78;97916.83;1828665;78;20992;-80
2020/12/04 05:25:51;;;;;;;32.38;20.72;;;;;;;-1.47;79.81;97906.41;1828650;78;21803;-80
2020/12/04 05:28:24;;;;;;;28.25;18.42;;;;;;;-1.45;79.80;97910.32;1828647;78;20958;-80
2020/12/04 05:31:08;;;;;;;34.35;21.48;;;;;;;-1.42;79.75;97909.34;1828755;78;21318;-82
2020/12/04 05:33:36;;;;;;;34.90;20.62;;;;;;;-1.46;79.85;97905.95;1828654;78;20907;-80
2020/12/04 05:36:05;;;;;;;34.65;20.12;;;;;;;-1.44;79.92;97911.17;1828622;78;20912;-81
2020/12/04 05:38:36;;;;;;;31.77;18.73;;;;;;;-1.46;79.90;97910.75;1828565;78;21314;-80
2020/12/04 05:41:08;;;;;;;28.85;20.27;;;;;;;-1.44;79.80;97912.48;1828610;78;21398;-80
2020/12/04 05:43:38;;;;;;;;;;;;;;;-1.43;79.67;97914.20;1831398;78;20880;-79
2020/12/04 05:46:25;;;;;;;34.65;21.23;;;;;;;-1.42;79.62;97905.39;1828752;78;20116;-78
2020/12/04 05:49:08;;;;;;;32.30;20.60;;;;;;;-1.43;79.64;97907.61;1828875;78;20975;-79
2020/12/04 05:51:40;;;;;;;33.33;20.85;;;;;;;-1.47;79.70;97902.46;1827751;78;21321;-79
2020/12/04 05:54:10;;;;;;;;;;;;;;;-1.45;79.59;97909.00;1830944;78;21019;-78
2020/12/04 05:56:42;;;;;;;32.83;20.08;;;;;;;-1.43;79.55;97905.86;1827396;78;20133;-80
2020/12/04 05:59:13;;;;;;;32.38;21.33;;;;;;;-1.45;79.50;97916.91;1826556;78;21568;-80
2020/12/04 06:01:45;;;;;;;33.35;21.37;;;;;;;-1.47;79.46;97909.48;1805402;79;21011;-79
2020/12/04 06:04:19;;;;;;;31.45;21.55;;;;;;;-1.46;79.42;97921.75;1804727;79;21809;-81
2020/12/04 06:06:50;;;;;;;31.25;21.00;;;;;;;-1.46;79.30;97921.29;1804917;79;21012;-80
2020/12/04 06:09:22;;;;;;;29.42;20.10;;;;;;;-1.44;79.25;97921.70;1804849;79;21422;-80
2020/12/04 06:11:54;;;;;;;35.10;22.35;;;;;;;-1.42;79.19;97921.20;1804498;79;21043;-79
2020/12/04 06:14:23;;;;;;;33.15;21.85;;;;;;;-1.41;79.12;97913.72;1805116;79;20941;-79
2020/12/04 06:17:09;;;;;;;36.08;21.93;;;;;;;-1.40;79.08;97910.16;1805269;79;21810;-79
2020/12/04 06:19:40;;;;;;;33.45;22.80;;;;;;;-1.38;78.98;97904.41;1804985;79;20976;-80
2020/12/04 06:22:19;;;;;;;34.65;21.27;;;;;;;-1.35;78.90;97897.73;1805231;79;21015;-80
2020/12/04 06:25:02;;;;;;;37.93;24.00;;;;;;;-1.35;78.86;97906.95;1805257;79;20933;-79
2020/12/04 06:27:44;;;;;;;31.70;21.42;;;;;;;-1.33;78.93;97901.18;1805196;79;20956;-79
2020/12/04 06:30:17;;;;;;;32.23;19.67;;;;;;;-1.33;78.92;97919.63;1805234;79;21169;-81
2020/12/04 06:32:50;;;;;;;32.78;21.40;;;;;;;-1.30;78.93;97918.22;1805010;79;21032;-81
2020/12/04 06:35:43;;;;;;;30.68;20.50;;;;;;;-1.28;78.84;97929.13;1805121;79;20976;-83
2020/12/04 06:38:38;;;;;;;36.23;22.35;;;;;;;-1.28;78.71;97923.86;1805151;79;21023;-79
2020/12/04 06:41:25;;;;;;;31.30;21.95;;;;;;;-1.25;78.64;97932.11;1804966;79;21040;-82
2020/12/04 06:43:56;;;;;;;35.75;22.37;;;;;;;-1.25;78.60;97930.80;1805113;79;21252;-78
2020/12/04 06:46:41;;;;;;;33.92;22.40;;;;;;;-1.23;78.56;97929.00;1805167;79;20968;-79
2020/12/04 06:52:19;;;;;;;38.55;23.12;;;;;;;-1.19;78.53;97926.66;1805124;79;21011;-81
2020/12/04 06:54:49;;;;;;;34.15;22.13;;;;;;;-1.19;78.48;97926.66;1805031;79;20985;-80
2020/12/04 06:57:19;;;;;;;38.58;22.73;;;;;;;-1.17;78.38;97930.57;1805027;79;21368;-79
2020/12/04 06:59:47;;;;;;;35.58;24.70;;;;;;;-1.14;78.41;97932.65;1806751;79;21035;-83
2020/12/04 07:02:20;;;;;;;35.40;21.77;;;;;;;-1.12;78.31;97938.77;1814180;79;21389;-78
2020/12/04 07:04:54;;;;;;;36.42;24.27;;;;;;;-1.10;78.24;97944.84;1814156;79;21024;-79
2020/12/04 07:07:26;;;;;;;35.88;24.35;;;;;;;-1.06;78.15;97944.75;1814547;79;20995;-80
2020/12/04 07:09:57;;;;;;;;;;;;;;;-1.04;78.13;97936.34;1817176;79;22124;-78
2020/12/04 07:12:27;;;;;;;31.87;21.57;;;;;;;-1.03;77.92;97938.08;1813277;79;20145;-79
2020/12/04 07:14:58;;;;;;;32.95;20.17;;;;;;;-1.03;77.91;97928.84;1814563;79;20916;-79
2020/12/04 07:17:27;;;;;;;29.63;20.12;;;;;;;-1.03;77.96;97927.53;1813889;78;20987;-79
2020/12/04 07:19:56;;;;;;;32.95;20.68;;;;;;;-1.03;78.04;97933.66;1814623;78;21010;-80
2020/12/04 07:22:26;;;;;;;31.77;20.48;;;;;;;-1.01;78.02;97929.66;1814829;79;21181;-79
2020/12/04 07:24:57;;;;;;;35.08;23.15;;;;;;;-1.01;78.08;97920.42;1814412;79;20896;-76
2020/12/04 07:27:29;;;;;;;36.63;23.83;;;;;;;-1.02;78.31;97922.67;1814937;79;21342;-73
2020/12/04 07:29:56;;;;;;;36.58;22.65;;;;;;;-0.99;78.33;97930.49;1814876;79;20901;-71
2020/12/04 07:32:25;;;;;;;44.48;22.93;;;;;;;-0.98;78.31;97930.88;1814846;79;20952;-72
2020/12/04 07:34:53;;;;;;;30.45;21.05;;;;;;;-0.97;78.38;97930.83;1814878;79;21406;-72
2020/12/04 07:37:27;;;;;;;37.60;22.32;;;;;;;-0.95;78.32;97930.79;1814822;79;21005;-75
2020/12/04 07:39:56;;;;;;;32.58;22.00;;;;;;;-0.93;78.28;97943.45;1814857;79;20893;-72
2020/12/04 07:42:26;;;;;;;33.78;21.42;;;;;;;-0.92;78.23;97943.41;1814872;79;21354;-71
2020/12/04 07:44:57;;;;;;;34.48;21.97;;;;;;;-0.90;78.24;97949.95;1813876;79;20881;-74
2020/12/04 07:47:25;;;;;;;36.53;22.95;;;;;;;-0.88;78.20;97932.34;1814981;79;22255;-74
2020/12/04 07:50:00;;;;;;;34.30;21.30;;;;;;;-0.84;78.17;97939.23;1815036;79;20972;-76
2020/12/04 07:52:28;;;;;;;40.12;23.35;;;;;;;-0.82;78.27;97941.81;1815181;79;20912;-74
2020/12/04 07:55:03;;;;;;;34.20;21.02;;;;;;;-0.80;78.18;97939.55;1814852;79;20912;-73
2020/12/04 07:57:41;;;;;;;38.00;21.45;;;;;;;-0.73;78.20;97944.17;1814914;79;21030;-74
2020/12/04 08:00:09;;;;;;;37.90;21.37;;;;;;;-0.68;78.14;97937.44;1812924;78;21357;-73
2020/12/04 08:02:40;;;;;;;35.13;21.93;;;;;;;-0.66;78.11;97931.64;1805748;79;21445;-75
2020/12/04 08:05:21;;;;;;;32.80;19.80;;;;;;;-0.63;77.98;97932.44;1805760;79;20921;-74
2020/12/04 08:07:52;;;;;;;36.00;21.37;;;;;;;-0.58;77.84;97936.25;1805743;79;20901;-74
2020/12/04 08:10:20;;;;;;;37.05;22.93;;;;;;;-0.56;77.92;97944.97;1805770;79;20873;-73
2020/12/04 08:12:49;;;;;;;32.90;20.95;;;;;;;-0.53;77.77;97943.55;1805776;79;21804;-74
2020/12/04 08:15:19;;;;;;;31.85;21.52;;;;;;;-0.51;77.62;97933.80;1805736;79;20941;-76
2020/12/04 08:17:46;;;;;;;30.55;20.20;;;;;;;-0.47;77.54;97932.80;1805862;79;21359;-76
2020/12/04 08:20:16;;;;;;;29.23;20.08;;;;;;;-0.43;77.46;97921.22;1805656;79;20959;-74
2020/12/04 08:22:48;;;;;;;37.05;21.75;;;;;;;-0.40;77.39;97925.08;1805810;79;20987;-74
2020/12/04 08:25:25;;;;;;;31.68;21.37;;;;;;;-0.37;77.41;97931.58;1805727;79;21362;-73
2020/12/04 08:27:53;;;;;;;28.00;21.23;;;;;;;-0.32;77.25;97927.94;1805685;79;20921;-74
2020/12/04 08:30:24;;;;;;;32.03;20.62;;;;;;;-0.29;77.15;97937.07;1805698;79;20972;-73
2020/12/04 08:33:03;;;;;;;34.20;21.15;;;;;;;-0.22;77.06;97942.53;1805738;79;20992;-73
2020/12/04 08:35:36;;;;;;;37.23;22.10;;;;;;;-0.18;76.87;97952.09;1805825;79;20984;-74
2020/12/04 08:38:16;;;;;;;31.03;19.00;;;;;;;-0.14;76.82;97957.69;1806200;79;22333;-77
2020/12/04 08:40:50;;;;;;;33.53;21.57;;;;;;;-0.10;76.76;97955.33;1805729;79;21676;-74
2020/12/04 08:43:25;;;;;;;38.38;22.17;;;;;;;-0.07;76.64;97959.66;1806002;79;20928;-75
2020/12/04 08:45:55;;;;;;;37.20;22.50;;;;;;;-0.01;76.64;97949.74;1805963;79;21422;-76
2020/12/04 08:48:25;;;;;;;35.98;21.93;;;;;;;0.06;76.44;97948.22;1805888;79;20984;-73
2020/12/04 08:50:55;;;;;;;32.23;20.85;;;;;;;0.09;76.27;97938.87;1805703;79;22315;-73
2020/12/04 08:53:24;;;;;;;30.05;20.80;;;;;;;0.12;75.93;97942.73;1805734;79;20964;-74
2020/12/04 08:55:54;;;;;;;33.90;21.12;;;;;;;0.17;75.91;97947.38;1805682;79;20976;-75
2020/12/04 08:58:22;;;;;;;38.40;21.60;;;;;;;0.20;76.10;97942.00;1805686;79;21039;-74
2020/12/04 09:00:51;;;;;;;32.55;19.98;;;;;;;0.23;76.31;97939.25;1805616;79;21481;-74
2020/12/04 09:03:20;;;;;;;32.30;22.42;;;;;;;0.27;76.09;97940.88;1805722;79;22096;-74
2020/12/04 09:05:49;;;;;;;36.83;21.52;;;;;;;0.32;76.08;97931.00;1805628;79;20935;-74
2020/12/04 09:08:16;;;;;;;34.67;21.40;;;;;;;0.35;76.12;97932.22;1805724;79;20909;-73
2020/12/04 09:10:43;;;;;;;31.45;19.52;;;;;;;0.40;76.03;97927.23;1805725;79;21359;-74
2020/12/04 09:13:11;;;;;;;34.88;21.37;;;;;;;0.46;75.96;97928.34;1805847;79;21430;-76
2020/12/04 09:15:39;;;;;;;34.98;22.30;;;;;;;0.48;75.91;97928.67;1805727;79;22277;-74
2020/12/04 09:18:06;;;;;;;31.90;19.62;;;;;;;0.52;75.92;97932.05;1805637;79;20920;-74
2020/12/04 09:20:34;;;;;;;39.30;21.75;;;;;;;0.57;75.99;97933.20;1781312;79;20968;-75
2020/12/04 09:23:02;;;;;;;34.78;21.12;;;;;;;0.62;76.08;97932.13;1781032;79;21015;-75
2020/12/04 09:25:31;;;;;;;32.13;18.95;;;;;;;0.65;76.22;97928.06;1805987;79;20920;-74
2020/12/04 09:28:00;;;;;;;35.13;20.55;;;;;;;0.68;75.86;97925.30;1802913;79;21761;-75
2020/12/04 09:30:28;;;;;;;32.78;20.65;;;;;;;0.68;75.95;97920.02;1805824;79;20921;-74
2020/12/04 09:32:55;;;;;;;36.77;21.90;;;;;;;0.71;76.05;97923.88;1805958;79;20928;-73
2020/12/04 09:35:23;;;;;;;32.90;20.88;;;;;;;0.74;75.81;97912.77;1805916;79;20952;-74
2020/12/04 09:37:52;;;;;;;36.88;22.13;;;;;;;0.77;75.77;97913.98;1805883;79;20995;-75
2020/12/04 09:40:19;;;;;;;38.80;22.40;;;;;;;0.80;75.75;97912.54;1805850;79;22773;-74
2020/12/04 09:42:46;;;;;;;34.08;21.20;;;;;;;0.84;75.69;97919.45;1805997;79;21442;-74
2020/12/04 09:45:16;;;;;;;32.03;20.70;;;;;;;0.86;75.40;97917.60;1805848;79;20904;-74
2020/12/04 09:47:43;;;;;;;38.08;22.35;;;;;;;0.88;75.31;97931.61;1805805;79;20988;-73
2020/12/04 09:50:14;;;;;;;39.30;21.97;;;;;;;0.90;75.18;97920.55;1805898;79;21012;-75
2020/12/04 09:52:42;;;;;;;36.80;21.97;;;;;;;0.88;75.20;97914.42;1805906;79;21356;-73
2020/12/04 09:55:09;;;;;;;37.58;21.87;;;;;;;0.91;75.17;97927.53;1805852;79;20942;-74
2020/12/04 09:57:39;;;;;;;34.63;22.50;;;;;;;0.89;75.11;97917.48;1805407;79;21473;-74
2020/12/04 10:00:07;;;;;;;38.10;22.45;;;;;;;0.90;75.15;97934.61;1805785;79;20901;-74
2020/12/04 10:02:35;;;;;;;33.88;22.60;;;;;;;0.92;75.24;97930.59;1805897;79;21517;-74
2020/12/04 10:05:03;;;;;;;45.50;22.48;;;;;;;0.95;75.43;97938.41;1805923;79;22741;-73
2020/12/04 10:07:31;;;;;;;33.88;22.27;;;;;;;0.96;75.38;97921.59;1805734;79;20944;-74
2020/12/04 10:09:59;;;;;;;35.28;22.35;;;;;;;0.99;75.41;97928.09;1805851;79;20928;-74
2020/12/04 10:12:27;;;;;;;37.83;20.55;;;;;;;1.02;75.29;97918.72;1805764;79;20936;-73
2020/12/04 10:14:55;;;;;;;33.05;21.50;;;;;;;1.05;75.18;97922.57;1805903;79;20925;-72
2020/12/04 10:17:23;;;;;;;38.70;22.25;;;;;;;1.05;75.04;97927.02;1805768;79;21162;-74
2020/12/04 10:19:50;;;;;;;34.08;18.98;;;;;;;1.06;75.19;97908.44;1805758;79;20952;-75
2020/12/04 10:22:18;;;;;;;31.95;20.20;;;;;;;1.06;75.23;97919.02;1805769;79;21346;-74
2020/12/04 10:24:45;;;;;;;33.78;20.60;;;;;;;1.06;75.26;97930.07;1805938;79;20897;-74
2020/12/04 10:27:13;;;;;;;46.05;25.08;;;;;;;1.05;75.36;97921.25;1805933;79;21416;-74
2020/12/04 10:29:40;;;;;;;32.35;21.07;;;;;;;1.03;75.52;97912.52;1805919;79;22663;-75
2020/12/04 10:32:08;;;;;;;32.75;19.35;;;;;;;1.04;75.64;97910.29;1805674;79;20940;-74
2020/12/04 10:34:35;;;;;;;39.40;23.45;;;;;;;1.03;75.72;97915.17;1805875;79;20908;-73
2020/12/04 10:37:04;;;;;;;58.30;23.73;;;;;;;1.03;75.82;97919.14;1805798;79;21426;-72
2020/12/04 10:39:32;;;;;;;40.17;24.63;;;;;;;1.07;75.81;97915.91;1805789;79;21028;-74
2020/12/04 10:42:02;;;;;;;43.05;25.10;;;;;;;1.08;75.77;97910.55;1805789;79;21180;-75
2020/12/04 10:44:32;;;;;;;38.25;24.37;;;;;;;1.12;75.79;97913.08;1782015;79;21023;-74
2020/12/04 10:47:01;;;;;;;45.63;24.70;;;;;;;1.15;75.67;97908.99;1805931;79;21464;-73
2020/12/04 10:49:28;;;;;;;39.65;22.62;;;;;;;1.17;75.61;97911.99;1805643;79;21039;-74
2020/12/04 10:51:57;;;;;;;44.77;25.92;;;;;;;1.19;75.65;97906.64;1805853;79;20913;-74
2020/12/04 10:54:24;;;;;;;39.78;23.15;;;;;;;1.21;75.70;97908.75;1805899;79;22650;-74
2020/12/04 10:56:55;;;;;;;44.27;25.48;;;;;;;1.23;75.82;97903.81;1805812;79;21098;-74
2020/12/04 10:59:23;;;;;;;39.80;26.12;;;;;;;1.25;75.66;97906.41;1805830;79;20937;-74
2020/12/04 11:02:03;;;;;;;36.20;24.25;;;;;;;1.26;75.71;97909.43;1805591;79;20881;-73
2020/12/04 11:07:13;;;;;;;36.23;22.85;;;;;;;1.30;75.55;97913.69;1805800;79;21758;-73
2020/12/04 11:09:43;;;;;;;44.03;24.82;;;;;;;1.32;75.28;97910.51;1802670;79;20999;-74
2020/12/04 11:12:11;;;;;;;41.23;23.90;;;;;;;1.35;75.24;97911.71;1805682;79;21007;-74
2020/12/04 11:14:43;;;;;;;36.40;23.92;;;;;;;1.35;75.29;97905.09;1805698;79;20928;-73
2020/12/04 11:17:09;;;;;;;39.67;25.02;;;;;;;1.35;75.22;97913.51;1805810;79;21319;-73
2020/12/04 11:19:38;;;;;;;37.13;24.70;;;;;;;1.35;75.15;97907.74;1805741;79;21358;-73
2020/12/04 11:22:06;;;;;;;33.90;22.70;;;;;;;1.36;75.21;97906.83;1805625;79;20909;-74
2020/12/04 11:24:37;;;;;;;37.28;24.50;;;;;;;1.37;75.07;97915.18;1805802;79;20901;-73
2020/12/04 11:27:07;;;;;;;41.18;24.07;;;;;;;1.35;75.10;97914.36;1805700;79;20937;-75
2020/12/04 11:29:36;;;;;;;34.13;23.07;;;;;;;1.36;75.20;97910.80;1805859;79;20901;-74
2020/12/04 11:32:03;;;;;;;31.75;21.95;;;;;;;1.38;75.19;97910.27;1805711;79;21799;-74
2020/12/04 11:34:31;;;;;;;37.73;23.45;;;;;;;1.39;75.25;97909.36;1805769;79;21031;-76
2020/12/04 11:36:58;;;;;;;38.53;23.12;;;;;;;1.42;75.23;97902.62;1805784;79;20975;-73